METAR Data
IDs: Format: Raw Decoded Include TAF

Data at: 1322 UTC 21 Oct 2018

NZAA 211300Z AUTO 17005KT 9999 NCD 13/11 Q1026 TEMPO FM1330 BKN012
NZAA 211230Z AUTO 18006KT 9999 NCD 13/11 Q1026 TEMPO FM1400 BKN012
NZAA 211200Z AUTO 18007KT 9999 NCD 14/12 Q1027 NOSIG
NZAA 211130Z AUTO 19005KT 9999 NCD 14/12 Q1027 NOSIG
NZAA 211100Z AUTO 18005KT 150V210 9999 NCD 14/11 Q1027 NOSIG
NZAA 211030Z AUTO 19004KT 9999 NCD 14/11 Q1027 NOSIG

TAF NZAA 211114Z 2112/2212 18005KT 9999 SCT040
  TEMPO 2112/2119 BKN012
  BECMG 2123/2201 24010KT
  BECMG 2208/2210 18005KT